Time;durP1;ratioP1;P1;durP2;ratioP2;P2;SDS_P1;SDS_P2;PMS_P1;PMS_P2;Temp;Humidity;BMP_temperature;BMP_pressure;BME280_temperature;BME280_humidity;BME280_pressure;Samples;Min_cycle;Max_cycle;Signal;HPM_P1;HPM_P2
2022/03/17 00:02:08;;;;;;;31.87;12.37;;;;;;;39.05;41.40;100879.81;4995277;28;20524;-73
2022/03/17 00:04:34;;;;;;;27.03;11.30;;;;;;;38.90;41.63;100872.88;4995329;28;20476;-73
2022/03/17 00:07:01;;;;;;;27.83;11.93;;;;;;;39.14;41.08;100877.13;4995144;28;20420;-73
2022/03/17 00:09:27;;;;;;;29.47;10.70;;;;;;;39.11;41.49;100877.75;4995190;28;20436;-74
2022/03/17 00:11:54;;;;;;;23.67;8.30;;;;;;;39.05;41.70;100879.00;4995043;28;20412;-75
2022/03/17 00:14:21;;;;;;;21.00;9.60;;;;;;;39.11;41.43;100872.34;5006852;28;20446;-74
2022/03/17 00:16:47;;;;;;;21.93;9.23;;;;;;;39.21;41.44;100877.47;5014721;28;20530;-74
2022/03/17 00:19:14;;;;;;;35.57;10.43;;;;;;;39.19;41.82;100874.28;5014896;28;20518;-74
2022/03/17 00:21:40;;;;;;;28.33;8.80;;;;;;;39.19;41.98;100874.28;5032521;28;20439;-73
2022/03/17 00:24:07;;;;;;;25.83;8.00;;;;;;;39.09;42.49;100874.53;5014634;28;20408;-73
2022/03/17 00:26:37;;;;;;;26.50;10.13;;;;;;;39.06;42.62;100869.75;5032152;28;20857;-73
2022/03/17 00:29:07;;;;;;;20.50;8.70;;;;;;;39.15;42.31;100862.44;4998846;28;20819;-73
2022/03/17 00:31:37;;;;;;;34.83;9.60;;;;;;;39.06;42.34;100857.00;5011199;28;20469;-75
2022/03/17 00:34:05;;;;;;;29.50;11.90;;;;;;;38.89;41.66;100851.50;4994939;28;20420;-73
2022/03/17 00:36:34;;;;;;;21.37;11.13;;;;;;;38.84;42.00;100844.28;4994968;28;20441;-72
2022/03/17 00:39:04;;;;;;;23.87;9.27;;;;;;;38.74;42.08;100839.16;4979601;28;20480;-73
2022/03/17 00:41:31;;;;;;;25.73;9.83;;;;;;;38.73;41.83;100826.69;4978596;28;20945;-74
2022/03/17 00:43:57;;;;;;;48.70;10.93;;;;;;;38.68;41.75;100827.63;4994599;28;20416;-74
2022/03/17 00:46:24;;;;;;;33.07;9.77;;;;;;;38.73;41.76;100818.56;5012095;28;20471;-75
2022/03/17 00:48:50;;;;;;;32.63;13.53;;;;;;;38.61;42.02;100810.19;4994478;28;20455;-72
2022/03/17 00:51:17;;;;;;;35.20;9.87;;;;;;;38.70;41.14;100808.31;4978353;28;20482;-73
2022/03/17 00:53:43;;;;;;;23.63;10.77;;;;;;;38.77;41.20;100802.47;4994464;28;20818;-72
2022/03/17 00:56:09;;;;;;;20.93;8.93;;;;;;;38.76;40.85;100795.47;4994625;28;20420;-73
2022/03/17 00:58:35;;;;;;;25.73;10.07;;;;;;;38.68;41.16;100795.09;4977986;28;20492;-73
2022/03/17 01:01:02;;;;;;;23.27;9.70;;;;;;;38.54;41.46;100794.38;4978489;28;20424;-75
2022/03/17 01:03:28;;;;;;;36.00;12.33;;;;;;;38.73;41.37;100786.03;4978442;28;20965;-76
2022/03/17 01:05:54;;;;;;;35.57;12.43;;;;;;;38.72;41.89;100779.00;4994503;28;20427;-74
2022/03/17 01:08:20;;;;;;;27.23;11.33;;;;;;;38.66;41.46;100774.81;4994482;28;20430;-74
2022/03/17 01:10:47;;;;;;;23.80;7.90;;;;;;;38.55;41.81;100771.59;5012229;28;20455;-73
2022/03/17 01:13:13;;;;;;;34.77;11.90;;;;;;;38.70;41.86;100771.16;4994488;28;20522;-72
2022/03/17 01:15:39;;;;;;;31.87;12.00;;;;;;;38.64;41.86;100767.00;4994462;28;20413;-72
2022/03/17 01:18:05;;;;;;;22.13;10.10;;;;;;;38.48;41.64;100771.22;4994379;28;20981;-75
2022/03/17 01:20:31;;;;;;;33.53;10.37;;;;;;;38.43;41.77;100763.25;5012086;28;20397;-73
2022/03/17 01:22:58;;;;;;;27.90;9.70;;;;;;;38.36;42.59;100766.38;5012058;28;20500;-74
2022/03/17 01:25:24;;;;;;;45.90;13.33;;;;;;;38.35;42.70;100761.28;4994265;28;20451;-74
2022/03/17 01:27:50;;;;;;;24.40;8.90;;;;;;;38.52;42.31;100757.84;4994569;28;20931;-75
2022/03/17 01:30:17;;;;;;;27.90;11.23;;;;;;;38.68;42.16;100749.00;4994285;28;20495;-74
2022/03/17 01:32:43;;;;;;;31.27;10.87;;;;;;;38.72;41.86;100742.97;4994346;28;20412;-72
2022/03/17 01:35:10;;;;;;;33.87;13.13;;;;;;;38.70;41.78;100737.84;4994235;28;20415;-74
2022/03/17 01:37:37;;;;;;;32.07;9.57;;;;;;;38.75;42.12;100748.56;4994097;28;20545;-74
2022/03/17 01:40:04;;;;;;;28.77;11.47;;;;;;;38.75;41.89;100742.34;4994217;28;20432;-75
2022/03/17 01:42:31;;;;;;;19.20;9.30;;;;;;;38.88;41.96;100738.72;4994119;28;20416;-76
2022/03/17 01:44:57;;;;;;;28.20;9.67;;;;;;;38.93;42.14;100733.16;5011690;28;20467;-75
2022/03/17 01:47:29;;;;;;;27.07;10.47;;;;;;;38.86;42.49;100739.03;4994151;28;20775;-74
2022/03/17 01:49:58;;;;;;;35.30;10.53;;;;;;;38.82;42.32;100739.97;4994103;28;20428;-75
2022/03/17 01:52:25;;;;;;;25.13;9.10;;;;;;;38.83;41.97;100730.72;4993865;28;20567;-74
2022/03/17 01:54:53;;;;;;;29.47;9.23;;;;;;;38.79;41.51;100732.47;4978139;28;20451;-74
2022/03/17 01:57:20;;;;;;;35.47;11.40;;;;;;;38.58;42.50;100730.31;4994135;28;21072;-76
2022/03/17 01:59:48;;;;;;;38.40;12.27;;;;;;;38.70;42.44;100724.28;4994039;28;20439;-74
2022/03/17 02:02:14;;;;;;;25.57;11.30;;;;;;;38.63;42.34;100722.03;4994079;28;20918;-74
2022/03/17 02:04:41;;;;;;;32.63;10.70;;;;;;;38.61;41.83;100723.44;4993957;28;20447;-75
2022/03/17 02:07:08;;;;;;;27.30;10.33;;;;;;;38.55;42.39;100730.13;4993951;28;20507;-75
2022/03/17 02:09:36;;;;;;;33.63;13.87;;;;;;;38.46;42.29;100727.38;5011586;28;20818;-74
2022/03/17 02:15:04;;;;;;;27.57;9.70;;;;;;;38.50;42.12;100727.56;5015105;28;20466;-73
2022/03/17 02:17:31;;;;;;;29.10;11.30;;;;;;;38.54;42.10;100723.09;4997344;28;20463;-73
2022/03/17 02:20:02;;;;;;;27.47;10.07;;;;;;;38.44;42.32;100725.00;4998325;28;20478;-73
2022/03/17 02:22:29;;;;;;;29.83;11.50;;;;;;;38.49;42.53;100715.94;5034310;28;20411;-74
2022/03/17 02:27:46;;;;;;;20.40;8.73;;;;;;;38.83;41.97;100709.03;5034862;28;20461;-75
2022/03/17 02:30:18;;;;;;;31.27;8.90;;;;;;;38.77;41.58;100716.50;5016831;28;20789;-76
2022/03/17 02:32:46;;;;;;;31.50;13.70;;;;;;;38.68;41.66;100719.19;5016578;28;20989;-74
2022/03/17 02:35:14;;;;;;;30.43;12.63;;;;;;;38.69;41.88;100728.91;5016590;28;20443;-73
2022/03/17 02:37:40;;;;;;;26.87;10.20;;;;;;;38.86;41.84;100732.81;5016917;28;20486;-72
2022/03/17 02:40:09;;;;;;;26.50;10.57;;;;;;;38.76;42.35;100733.09;5007220;28;20569;-74
2022/03/17 02:42:37;;;;;;;24.73;9.87;;;;;;;38.72;42.54;100730.22;4996804;28;20502;-76
2022/03/17 02:45:06;;;;;;;28.97;11.10;;;;;;;38.68;42.01;100730.03;4996860;28;20434;-74
2022/03/17 02:47:33;;;;;;;33.13;11.33;;;;;;;38.74;41.54;100732.63;4996834;28;20982;-74
2022/03/17 02:49:59;;;;;;;31.87;10.20;;;;;;;38.64;41.81;100739.09;4980578;28;20521;-74
2022/03/17 02:52:27;;;;;;;31.37;10.67;;;;;;;38.81;42.26;100728.34;4996554;28;20472;-73
2022/03/17 02:54:55;;;;;;;33.30;10.90;;;;;;;38.76;42.32;100736.59;4980624;28;20416;-76
2022/03/17 02:57:21;;;;;;;31.97;10.33;;;;;;;38.90;41.77;100737.28;5014204;28;20981;-75
2022/03/17 02:59:51;;;;;;;33.13;11.03;;;;;;;38.80;42.05;100726.75;4996658;28;20400;-76
2022/03/17 03:02:22;;;;;;;22.17;10.97;;;;;;;38.86;42.06;100732.81;4996607;28;20416;-73
2022/03/17 03:04:49;;;;;;;32.97;10.83;;;;;;;38.88;41.70;100727.88;5014207;28;20392;-72
2022/03/17 03:07:15;;;;;;;29.73;10.53;;;;;;;38.88;41.81;100727.88;4996320;28;20404;-75
2022/03/17 03:09:42;;;;;;;21.97;9.37;;;;;;;38.79;42.29;100725.13;5013897;28;20435;-73
2022/03/17 03:12:09;;;;;;;30.90;10.20;;;;;;;38.77;42.45;100723.84;4996549;28;20431;-75
2022/03/17 03:14:35;;;;;;;38.67;12.57;;;;;;;38.78;42.15;100723.53;4996444;28;20987;-74
2022/03/17 03:17:02;;;;;;;37.93;11.67;;;;;;;38.66;42.43;100721.38;4996103;28;20491;-74
2022/03/17 03:19:28;;;;;;;32.07;9.00;;;;;;;38.66;42.03;100709.75;4996142;28;20474;-74
2022/03/17 03:21:54;;;;;;;32.90;10.50;;;;;;;38.63;42.47;100723.94;5013690;28;20405;-72
2022/03/17 03:24:20;;;;;;;30.73;10.10;;;;;;;38.77;42.01;100718.44;4996016;28;20423;-74
2022/03/17 03:26:47;;;;;;;33.50;11.20;;;;;;;38.73;42.42;100720.16;4995890;28;20514;-74
2022/03/17 03:31:45;;;;;;;27.67;10.00;;;;;;;38.85;42.14;100717.63;5013657;28;20385;-74
2022/03/17 03:34:12;;;;;;;32.20;12.60;;;;;;;38.82;42.20;100712.84;4995891;28;20999;-74
2022/03/17 03:39:22;;;;;;;31.53;12.23;;;;;;;38.73;42.31;100720.97;4998707;28;20395;-73
2022/03/17 03:41:49;;;;;;;40.27;11.87;;;;;;;38.70;42.09;100722.38;5013270;28;20932;-75
2022/03/17 03:44:15;;;;;;;38.57;13.00;;;;;;;38.68;42.20;100719.19;4995835;28;20994;-73
2022/03/17 03:46:42;;;;;;;45.40;13.83;;;;;;;38.79;41.75;100718.91;4995726;28;20420;-74
2022/03/17 03:49:08;;;;;;;37.87;11.43;;;;;;;38.66;42.02;100710.53;5013262;28;20448;-73
2022/03/17 03:51:34;;;;;;;25.70;11.20;;;;;;;38.74;42.24;100721.78;4979258;28;20478;-72
2022/03/17 03:54:18;;;;;;;26.33;13.10;;;;;;;38.66;42.13;100715.97;4995557;28;20467;-72
2022/03/17 03:56:47;;;;;;;31.83;11.63;;;;;;;38.46;42.28;100721.97;4998075;28;20467;-72
2022/03/17 03:59:21;;;;;;;24.10;9.80;;;;;;;38.42;43.08;100724.50;4995570;28;20427;-73
2022/03/17 04:01:49;;;;;;;27.67;9.40;;;;;;;38.59;42.45;100725.69;4995500;28;20412;-72
2022/03/17 04:04:19;;;;;;;42.30;12.43;;;;;;;38.58;42.12;100721.38;4979274;28;20539;-74
2022/03/17 04:06:51;;;;;;;34.60;11.37;;;;;;;38.61;42.16;100723.44;5013120;28;20405;-75
2022/03/17 04:09:20;;;;;;;35.47;11.70;;;;;;;38.57;42.72;100730.63;4995241;28;20416;-74
2022/03/17 04:11:47;;;;;;;35.37;10.33;;;;;;;38.63;42.59;100732.06;4995041;28;20492;-73
2022/03/17 04:14:14;;;;;;;30.10;11.83;;;;;;;38.51;42.54;100729.16;4995094;28;20431;-73
2022/03/17 04:16:41;;;;;;;30.83;11.10;;;;;;;38.55;42.42;100730.94;4995177;28;20424;-73
2022/03/17 04:19:09;;;;;;;30.83;10.90;;;;;;;38.72;42.58;100734.84;5011462;28;20952;-72
2022/03/17 04:21:35;;;;;;;24.63;10.67;;;;;;;38.63;42.50;100727.44;5014609;28;20439;-73
2022/03/17 04:24:02;;;;;;;28.60;11.10;;;;;;;38.82;41.72;100729.94;5014653;28;20415;-73
2022/03/17 04:26:28;;;;;;;38.80;10.40;;;;;;;38.83;41.94;100730.72;5014387;28;20988;-74
2022/03/17 04:28:55;;;;;;;36.13;11.60;;;;;;;38.58;42.78;100733.00;5014662;28;20510;-74
2022/03/17 04:31:21;;;;;;;29.70;11.90;;;;;;;38.64;42.29;100731.75;5014492;28;20869;-74
2022/03/17 04:33:48;;;;;;;34.60;11.40;;;;;;;38.74;42.45;100740.75;5031841;28;20898;-73
2022/03/17 04:36:15;;;;;;;27.13;8.77;;;;;;;38.71;42.58;100744.84;5014554;28;20782;-74
2022/03/17 04:38:42;;;;;;;19.97;11.10;;;;;;;38.71;42.66;100739.44;5014390;28;20459;-73
2022/03/17 04:41:12;;;;;;;32.50;14.23;;;;;;;38.55;43.12;100730.13;5014478;28;20487;-76
2022/03/17 04:43:39;;;;;;;32.73;15.13;;;;;;;38.66;42.81;100737.66;5014278;28;20972;-73
2022/03/17 04:46:07;;;;;;;28.50;11.60;;;;;;;38.50;42.47;100738.41;4997337;28;20543;-75
2022/03/17 04:48:34;;;;;;;25.17;9.60;;;;;;;38.60;42.93;100741.63;4994790;28;20439;-75
2022/03/17 04:51:00;;;;;;;26.33;9.83;;;;;;;38.59;43.08;100740.03;4994266;28;20547;-76
2022/03/17 04:53:27;;;;;;;23.53;10.73;;;;;;;38.56;43.41;100739.88;5012335;28;20392;-74
2022/03/17 04:56:17;;;;;;;44.40;12.00;;;;;;;38.69;43.11;100742.47;4994235;28;20448;-74
2022/03/17 04:58:45;;;;;;;27.90;12.20;;;;;;;38.54;43.01;100734.75;4994603;28;20448;-74
2022/03/17 05:01:12;;;;;;;28.50;11.30;;;;;;;38.47;43.03;100739.81;4994474;28;20421;-75
2022/03/17 05:03:39;;;;;;;28.53;11.57;;;;;;;38.47;43.22;100737.09;4994524;28;20420;-75
2022/03/17 05:06:06;;;;;;;34.80;11.97;;;;;;;38.43;43.46;100738.88;4994580;28;20915;-74
2022/03/17 05:08:36;;;;;;;42.67;11.40;;;;;;;38.48;43.86;100741.41;4994498;28;20432;-74
2022/03/17 05:11:03;;;;;;;28.67;10.13;;;;;;;38.45;43.65;100742.06;4994508;28;20929;-74
2022/03/17 05:13:30;;;;;;;35.40;10.53;;;;;;;38.57;43.08;100747.69;5012139;28;20397;-73
2022/03/17 05:15:56;;;;;;;32.30;10.20;;;;;;;38.41;42.97;100749.19;4994415;28;20420;-72
2022/03/17 05:18:22;;;;;;;31.20;12.63;;;;;;;38.49;43.09;100751.16;5011949;28;21022;-73
2022/03/17 05:20:49;;;;;;;29.60;11.97;;;;;;;38.27;43.85;100748.50;5012042;28;20404;-75
2022/03/17 05:23:17;;;;;;;33.07;11.10;;;;;;;38.54;43.35;100756.44;4994457;28;20459;-76
2022/03/17 05:25:47;;;;;;;42.60;10.73;;;;;;;38.46;43.58;100754.47;4994286;28;20527;-74
2022/03/17 05:28:14;;;;;;;36.47;11.30;;;;;;;38.27;44.19;100762.84;4977591;28;20439;-73
2022/03/17 05:30:42;;;;;;;36.80;11.93;;;;;;;38.29;43.92;100757.09;4977309;28;20420;-73
2022/03/17 05:33:11;;;;;;;28.17;12.17;;;;;;;38.25;43.38;100758.84;4993698;28;20421;-72
2022/03/17 05:35:42;;;;;;;28.90;12.37;;;;;;;38.25;43.92;100766.97;4992966;28;20809;-73
2022/03/17 05:38:08;;;;;;;30.77;13.20;;;;;;;38.24;43.92;100768.03;4991855;28;20456;-73
2022/03/17 05:40:34;;;;;;;31.27;12.63;;;;;;;38.51;44.02;100767.09;5011767;28;20417;-73
2022/03/17 05:43:06;;;;;;;33.07;14.33;;;;;;;38.37;43.59;100769.91;4994201;28;20938;-74
2022/03/17 05:45:33;;;;;;;37.23;12.13;;;;;;;38.45;43.65;100771.88;4995212;28;20494;-72
2022/03/17 05:48:00;;;;;;;26.33;10.27;;;;;;;38.32;43.96;100772.75;4981795;28;20405;-70
2022/03/17 05:50:29;;;;;;;27.90;13.00;;;;;;;38.44;43.50;100772.97;4981726;28;20416;-71
2022/03/17 05:52:56;;;;;;;36.23;12.93;;;;;;;38.42;43.80;100778.69;4981393;28;20981;-75
2022/03/17 05:55:24;;;;;;;32.60;12.67;;;;;;;38.43;43.30;100777.59;4997850;28;20416;-80
2022/03/17 05:57:51;;;;;;;28.57;11.07;;;;;;;38.59;42.77;100777.97;4997597;28;20934;-75
2022/03/17 06:00:23;;;;;;;31.60;11.70;;;;;;;38.62;43.11;100785.50;4997717;28;20416;-73
2022/03/17 06:02:50;;;;;;;38.40;13.90;;;;;;;38.57;43.04;100782.13;5014748;28;20499;-72
2022/03/17 06:05:17;;;;;;;23.87;10.67;;;;;;;38.61;42.63;100793.91;4992692;28;20437;-73
2022/03/17 06:07:45;;;;;;;34.20;13.87;;;;;;;38.73;42.70;100802.28;4996579;28;20427;-73
2022/03/17 06:10:17;;;;;;;38.47;13.30;;;;;;;38.63;43.04;100797.13;4993796;28;20862;-73
2022/03/17 06:12:44;;;;;;;29.93;15.07;;;;;;;38.75;42.53;100799.28;4994665;28;20448;-76
2022/03/17 06:15:12;;;;;;;21.33;11.60;;;;;;;38.70;42.44;100808.31;4996419;28;20428;-74
2022/03/17 06:17:40;;;;;;;32.83;12.50;;;;;;;38.70;42.17;100808.31;4996393;28;20463;-72
2022/03/17 06:20:11;;;;;;;32.50;13.93;;;;;;;38.82;42.19;100813.19;4994289;28;20408;-77
2022/03/17 06:22:42;;;;;;;30.70;12.13;;;;;;;38.82;42.20;100816.69;5012811;28;20524;-73
2022/03/17 06:25:10;;;;;;;34.10;15.20;;;;;;;38.73;42.30;100813.13;4997470;28;20993;-71
2022/03/17 06:27:37;;;;;;;34.90;12.20;;;;;;;38.75;42.52;100815.56;4980664;28;20420;-72
2022/03/17 06:30:05;;;;;;;28.63;10.77;;;;;;;38.52;42.78;100815.56;4997172;28;20937;-70
2022/03/17 06:32:34;;;;;;;40.27;14.23;;;;;;;38.38;43.75;100818.38;4997004;28;20404;-71
2022/03/17 06:35:01;;;;;;;24.53;12.90;;;;;;;38.60;42.71;100814.81;4996745;28;20423;-69
2022/03/17 06:37:27;;;;;;;23.43;13.57;;;;;;;38.65;42.87;100813.88;5014622;28;20450;-71
2022/03/17 06:39:53;;;;;;;46.80;16.80;;;;;;;38.64;43.09;100818.50;4997004;28;20902;-73
2022/03/17 06:42:21;;;;;;;32.83;13.40;;;;;;;38.63;42.90;100824.25;5014587;28;20436;-73
2022/03/17 06:44:47;;;;;;;34.43;12.33;;;;;;;38.69;42.76;100826.50;4996740;28;20877;-74
2022/03/17 06:47:13;;;;;;;30.00;12.57;;;;;;;38.61;42.58;100829.97;4996673;28;20453;-73
2022/03/17 06:49:40;;;;;;;27.93;11.13;;;;;;;38.43;42.91;100836.44;4997965;28;20500;-73
2022/03/17 06:52:06;;;;;;;40.90;17.63;;;;;;;38.58;42.89;100832.50;5015839;28;21027;-73
2022/03/17 06:54:33;;;;;;;26.53;13.73;;;;;;;38.78;42.73;100844.75;5016341;28;20427;-73
2022/03/17 06:56:59;;;;;;;35.23;13.80;;;;;;;38.66;42.40;100837.97;5015902;28;20455;-72
2022/03/17 06:59:25;;;;;;;25.73;10.80;;;;;;;38.68;42.20;100846.59;5016039;28;20542;-74
2022/03/17 07:01:51;;;;;;;33.53;11.63;;;;;;;38.74;42.02;100847.28;5033893;28;20407;-73
2022/03/17 07:04:18;;;;;;;41.77;18.57;;;;;;;38.71;42.20;100837.03;5033905;28;20923;-73
2022/03/17 07:06:44;;;;;;;52.37;13.60;;;;;;;38.61;42.28;100853.56;5015980;28;20881;-72
2022/03/17 07:09:10;;;;;;;33.37;11.33;;;;;;;38.79;42.44;100860.69;5033808;28;20475;-74
2022/03/17 07:11:37;;;;;;;33.30;14.43;;;;;;;38.91;42.26;100860.91;5015934;28;20420;-73
2022/03/17 07:14:03;;;;;;;32.60;14.50;;;;;;;38.81;42.78;100863.91;5014394;28;20439;-72
2022/03/17 07:16:29;;;;;;;22.47;9.93;;;;;;;38.65;42.80;100868.91;4999595;28;20415;-72
2022/03/17 07:18:55;;;;;;;33.90;13.03;;;;;;;38.75;42.46;100861.66;5033574;28;20411;-72
2022/03/17 07:21:22;;;;;;;30.73;11.00;;;;;;;38.68;42.73;100871.00;5014477;28;20498;-73
2022/03/17 07:23:48;;;;;;;30.50;13.40;;;;;;;38.65;42.86;100868.91;5012471;28;20424;-71
2022/03/17 07:26:14;;;;;;;29.87;12.00;;;;;;;38.53;43.29;100873.28;4996186;28;20443;-71
2022/03/17 07:28:40;;;;;;;27.17;12.33;;;;;;;38.65;43.21;100876.22;4995963;28;20421;-72
2022/03/17 07:31:06;;;;;;;37.57;11.20;;;;;;;38.67;42.88;100877.53;5012327;28;20404;-72
2022/03/17 07:33:33;;;;;;;48.47;13.50;;;;;;;38.77;43.26;100881.09;4994195;28;20452;-72
2022/03/17 07:35:59;;;;;;;41.90;13.57;;;;;;;38.56;43.09;100878.09;4978488;28;20448;-72
2022/03/17 07:38:25;;;;;;;49.30;14.30;;;;;;;38.70;42.21;100882.31;5011908;28;20455;-71
2022/03/17 07:40:51;;;;;;;51.63;14.33;;;;;;;38.40;42.64;100885.81;4994296;28;20424;-71
2022/03/17 07:43:17;;;;;;;29.63;11.20;;;;;;;38.75;42.37;100886.06;5009178;28;20993;-74
2022/03/17 07:45:43;;;;;;;31.23;11.70;;;;;;;38.76;42.17;100887.66;4994173;28;20409;-71
2022/03/17 07:48:10;;;;;;;38.20;13.43;;;;;;;38.84;42.21;100889.59;4994284;28;20419;-71
2022/03/17 07:50:36;;;;;;;28.87;13.40;;;;;;;39.03;42.16;100900.22;4994093;28;20435;-72
2022/03/17 07:53:02;;;;;;;35.73;10.80;;;;;;;39.00;41.95;100900.84;5011570;28;20464;-72
2022/03/17 07:55:28;;;;;;;28.17;11.30;;;;;;;39.01;41.71;100905.94;4995557;28;20927;-71
2022/03/17 07:57:54;;;;;;;26.77;12.27;;;;;;;38.94;42.10;100902.88;4995122;28;20452;-71
2022/03/17 08:00:21;;;;;;;27.37;11.17;;;;;;;38.88;42.04;100904.94;5013390;28;20502;-72
2022/03/17 08:02:47;;;;;;;50.83;15.90;;;;;;;38.88;42.54;100909.56;4994720;28;20803;-70
2022/03/17 08:05:14;;;;;;;33.67;12.50;;;;;;;38.83;42.48;100915.13;5012111;28;20548;-70
2022/03/17 08:07:40;;;;;;;27.83;10.67;;;;;;;38.69;42.35;100915.19;4969295;28;20416;-70
2022/03/17 08:10:07;;;;;;;35.47;12.33;;;;;;;38.67;42.97;100926.34;5011452;28;20423;-73
2022/03/17 08:12:34;;;;;;;22.47;10.40;;;;;;;38.91;42.28;100933.34;5011449;28;20444;-72
2022/03/17 08:15:10;;;;;;;34.13;10.83;;;;;;;38.94;42.34;100935.44;4993877;28;20412;-72
2022/03/17 08:17:36;;;;;;;37.43;10.70;;;;;;;38.90;42.20;100935.25;4992565;28;20444;-72
2022/03/17 08:20:05;;;;;;;33.93;10.87;;;;;;;39.03;42.17;100940.91;4993775;28;20872;-72
2022/03/17 08:22:32;;;;;;;35.20;11.80;;;;;;;39.06;41.92;100945.72;4999178;28;20962;-74
2022/03/17 08:24:58;;;;;;;47.07;12.40;;;;;;;39.10;41.86;100944.78;4994868;28;20891;-73
2022/03/17 08:27:24;;;;;;;25.30;12.03;;;;;;;39.19;41.77;100951.06;4994296;28;20420;-73
2022/03/17 08:29:50;;;;;;;24.67;10.87;;;;;;;39.03;41.97;100944.41;4994527;28;20973;-74
2022/03/17 08:32:17;;;;;;;31.50;12.67;;;;;;;39.03;42.12;100952.53;5012084;28;20404;-73
2022/03/17 08:34:43;;;;;;;31.63;12.57;;;;;;;39.07;42.03;100948.09;4994286;28;20493;-73
2022/03/17 08:37:10;;;;;;;32.63;14.50;;;;;;;39.01;41.64;100952.06;4994678;28;20479;-72
2022/03/17 08:39:36;;;;;;;37.83;10.57;;;;;;;39.07;41.01;100953.53;4994900;28;20782;-72
2022/03/17 08:42:03;;;;;;;33.07;14.10;;;;;;;39.14;41.71;100959.31;4994792;28;20424;-72
2022/03/17 08:44:29;;;;;;;25.57;12.70;;;;;;;39.13;41.84;100959.63;4980082;28;20917;-72
2022/03/17 08:49:40;;;;;;;51.70;15.90;;;;;;;39.09;42.13;100961.34;5032047;28;20776;-71
2022/03/17 08:52:07;;;;;;;34.83;13.60;;;;;;;39.16;41.55;100967.16;5014080;28;20483;-75
2022/03/17 08:54:35;;;;;;;41.53;11.13;;;;;;;38.99;41.96;100978.72;5014285;28;20474;-78
2022/03/17 08:57:03;;;;;;;41.63;13.10;;;;;;;39.20;41.64;100968.94;5014144;28;20478;-71
2022/03/17 08:59:34;;;;;;;41.03;14.50;;;;;;;39.09;42.27;100983.06;4999687;28;20852;-71
2022/03/17 09:02:03;;;;;;;36.60;14.63;;;;;;;39.18;42.83;100979.31;4978572;28;20419;-71
2022/03/17 09:04:30;;;;;;;40.30;13.80;;;;;;;39.17;41.72;100979.63;4994483;28;20849;-71
2022/03/17 09:07:00;;;;;;;33.57;12.87;;;;;;;39.16;41.30;100973.38;4994618;28;20511;-71
2022/03/17 09:09:27;;;;;;;24.83;12.23;;;;;;;39.32;41.32;100979.22;4993779;28;20416;-72
2022/03/17 09:11:53;;;;;;;44.07;12.17;;;;;;;39.07;41.36;100982.56;4994484;28;20498;-73
2022/03/17 09:14:21;;;;;;;27.13;10.10;;;;;;;39.09;41.16;100983.84;4994324;28;20423;-71
2022/03/17 09:16:47;;;;;;;33.27;14.23;;;;;;;39.29;41.07;100992.59;5011019;28;20397;-73
2022/03/17 09:19:13;;;;;;;43.57;15.27;;;;;;;39.37;40.94;100981.78;4994329;28;20444;-73
2022/03/17 09:21:39;;;;;;;35.17;13.80;;;;;;;39.17;41.13;100975.00;5015688;28;20481;-73
2022/03/17 09:24:06;;;;;;;43.57;12.97;;;;;;;39.38;40.75;100983.38;4998038;28;20420;-73
2022/03/17 09:26:32;;;;;;;47.83;13.23;;;;;;;39.55;40.58;100981.84;4997950;28;20879;-72
2022/03/17 09:28:59;;;;;;;31.40;11.70;;;;;;;39.53;40.56;100981.34;4982228;28;20935;-75
2022/03/17 09:31:26;;;;;;;28.20;12.67;;;;;;;39.28;41.73;100985.56;5015850;28;20521;-73
2022/03/17 09:33:52;;;;;;;22.47;10.63;;;;;;;39.19;41.56;100985.53;5015837;28;20405;-72
2022/03/17 09:36:18;;;;;;;35.93;11.53;;;;;;;39.28;41.55;100977.44;4998224;28;20412;-73
2022/03/17 09:39:39;;;;;;;42.17;12.87;;;;;;;39.43;41.76;100979.72;5015506;28;20476;-74
2022/03/17 09:41:33;;;;;;;47.67;13.70;;;;;;;39.33;40.83;100975.38;5015585;28;20434;-71
2022/03/17 09:44:00;;;;;;;33.37;13.60;;;;;;;39.17;41.27;100977.72;4981936;28;20507;-75
2022/03/17 09:46:28;;;;;;;34.97;13.90;;;;;;;39.30;41.37;100980.66;5015405;28;20488;-74
2022/03/17 09:48:55;;;;;;;46.43;16.70;;;;;;;39.40;41.20;100974.91;4997863;28;20412;-73
2022/03/17 09:51:26;;;;;;;31.80;11.13;;;;;;;39.47;41.32;100986.13;4997622;28;20856;-74
2022/03/17 09:53:56;;;;;;;39.83;16.50;;;;;;;39.31;42.01;100982.25;5015659;28;20412;-71
2022/03/17 09:56:24;;;;;;;43.27;10.80;;;;;;;39.39;41.58;100982.25;4997644;28;20451;-71
2022/03/17 09:59:02;;;;;;;39.70;14.33;;;;;;;39.56;41.15;100976.09;4997116;28;20542;-72
2022/03/17 10:01:28;;;;;;;32.83;12.53;;;;;;;39.61;40.70;100978.72;5018618;28;20789;-73
2022/03/17 10:04:02;;;;;;;36.40;11.97;;;;;;;39.54;41.38;100974.81;5031405;28;20449;-71
2022/03/17 10:06:29;;;;;;;37.73;13.43;;;;;;;39.44;41.25;100968.56;5017116;28;20420;-73
2022/03/17 10:08:56;;;;;;;29.57;13.50;;;;;;;39.51;40.63;100973.53;5017145;28;20411;-73
2022/03/17 10:11:31;;;;;;;36.50;12.13;;;;;;;39.73;40.29;100972.66;5034515;28;20855;-71
2022/03/17 10:13:59;;;;;;;29.40;11.97;;;;;;;39.71;40.49;100967.53;5013857;28;20418;-71
2022/03/17 10:16:27;;;;;;;29.30;11.63;;;;;;;39.79;40.07;100967.91;4999932;28;20965;-73
2022/03/17 10:19:06;;;;;;;34.93;10.73;;;;;;;39.85;40.13;100961.19;5014951;28;20629;-73
2022/03/17 10:21:33;;;;;;;41.17;11.67;;;;;;;39.68;40.98;100968.19;5014993;28;20477;-73
2022/03/17 10:24:06;;;;;;;43.67;15.40;;;;;;;39.62;40.65;100976.78;5014951;28;20443;-73
2022/03/17 10:26:35;;;;;;;27.97;13.60;;;;;;;39.83;40.51;100966.13;5032729;28;20442;-75
2022/03/17 10:29:15;;;;;;;37.13;14.50;;;;;;;39.87;40.26;100959.75;4997002;28;20994;-73
2022/03/17 10:32:07;;;;;;;37.70;13.50;;;;;;;39.83;40.56;100955.25;4998832;28;20425;-73
2022/03/17 10:34:48;;;;;;;33.27;12.07;;;;;;;39.73;40.37;100957.19;4995247;28;20795;-73
2022/03/17 10:37:17;;;;;;;46.80;13.47;;;;;;;39.96;40.63;100954.31;5006722;28;20455;-72
2022/03/17 10:39:57;;;;;;;40.63;12.60;;;;;;;40.01;40.24;100951.44;4979433;28;20420;-73
2022/03/17 10:42:30;;;;;;;31.97;12.63;;;;;;;39.90;40.31;100939.28;5028367;28;20411;-72
2022/03/17 10:45:08;;;;;;;26.93;11.53;;;;;;;40.01;40.38;100927.78;4983998;28;20510;-73
2022/03/17 10:47:39;;;;;;;26.40;12.13;;;;;;;39.54;40.41;100928.69;5033739;28;20874;-72
2022/03/17 10:50:17;;;;;;;38.30;13.60;;;;;;;39.69;40.26;100934.47;4972359;28;20414;-72
2022/03/17 10:52:56;;;;;;;39.73;15.50;;;;;;;39.65;40.65;100936.22;4971616;28;20460;-72
2022/03/17 10:55:31;;;;;;;42.33;12.20;;;;;;;39.60;40.61;100928.25;5011565;28;20424;-72
2022/03/17 10:58:16;;;;;;;29.10;11.47;;;;;;;39.70;39.98;100922.50;4993098;28;20825;-74
2022/03/17 11:00:58;;;;;;;37.77;11.10;;;;;;;39.59;40.53;100932.03;4993920;28;20419;-73
2022/03/17 11:03:24;;;;;;;40.97;14.30;;;;;;;39.65;40.16;100916.41;4993719;28;20447;-73
2022/03/17 11:05:51;;;;;;;42.00;15.47;;;;;;;39.70;40.28;100918.97;4995060;28;20606;-72
2022/03/17 11:08:18;;;;;;;33.80;13.37;;;;;;;39.83;40.49;100904.44;4994803;28;20838;-71
2022/03/17 11:10:45;;;;;;;32.13;10.23;;;;;;;39.79;40.70;100908.16;4995149;28;20408;-71
2022/03/17 11:13:11;;;;;;;41.03;11.03;;;;;;;39.88;40.14;100904.31;4995010;28;20439;-72
2022/03/17 11:15:42;;;;;;;21.00;11.37;;;;;;;39.91;39.83;100900.16;4995761;28;20918;-74
2022/03/17 11:18:15;;;;;;;32.80;9.90;;;;;;;39.97;39.88;100896.19;4995349;28;20456;-74
2022/03/17 11:20:41;;;;;;;26.43;11.00;;;;;;;39.86;40.53;100892.19;4995717;28;20417;-73
2022/03/17 11:23:30;;;;;;;30.03;10.80;;;;;;;39.75;40.17;100887.03;4995528;28;20420;-71
2022/03/17 11:25:59;;;;;;;34.03;12.40;;;;;;;39.87;39.57;100885.63;4993291;28;20516;-71
2022/03/17 11:28:41;;;;;;;39.10;13.50;;;;;;;39.65;40.40;100886.53;4995453;28;20466;-73